Time;durP1;ratioP1;P1;durP2;ratioP2;P2;SDS_P1;SDS_P2;PMS_P1;PMS_P2;Temp;Humidity;BMP_temperature;BMP_pressure;BME280_temperature;BME280_humidity;BME280_pressure;Samples;Min_cycle;Max_cycle;Signal;HPM_P1;HPM_P2
2022/12/22 03:26:59;;;;;;;;;;;6.30;89.40;;;;;;5054468;28;19979;-90
2022/12/22 03:29:25;;;;;;;;;;;6.40;89.30;;;;;;5054246;28;20467;-90
2022/12/22 03:31:50;;;;;;;;;;;6.30;89.40;;;;;;5053787;28;19944;-89
2022/12/22 03:34:16;;;;;;;;;;;6.30;89.70;;;;;;5054369;28;19984;-89
2022/12/22 03:36:41;;;;;;;;;;;6.40;89.50;;;;;;5054318;28;19992;-89
2022/12/22 03:39:08;;;;;;;;;;;6.40;89.40;;;;;;5054303;28;19973;-89
2022/12/22 03:47:02;;;;;;;;;;;6.40;88.20;;;;;;5054078;28;20018;-89
2022/12/22 03:49:28;;;;;;;;;;;6.40;88.40;;;;;;5036192;28;19976;-89
2022/12/22 03:51:53;;;;;;;;;;;6.40;88.50;;;;;;5035936;28;19945;-89
2022/12/22 03:54:20;;;;;;;;;;;6.40;88.20;;;;;;5053912;28;19966;-89
2022/12/22 03:56:45;;;;;;;;;;;6.40;88.20;;;;;;5053970;28;19953;-89
2022/12/22 03:59:11;;;;;;;;;;;6.20;88.50;;;;;;5053483;28;20059;-89
2022/12/22 04:01:41;;;;;;;;;;;6.10;88.80;;;;;;5053872;28;20028;-89
2022/12/22 04:04:07;;;;;;;;;;;6.00;88.80;;;;;;5054070;28;19945;-89
2022/12/22 04:06:33;;;;;;;;;;;5.90;89.00;;;;;;5035802;28;20012;-89
2022/12/22 04:08:58;;;;;;;;;;;5.90;89.20;;;;;;5053466;28;19945;-89
2022/12/22 04:14:08;;;;;;;;;;;6.00;89.60;;;;;;5053650;28;19945;-89
2022/12/22 04:16:33;;;;;;;;;;;6.10;89.60;;;;;;5053577;28;19945;-89
2022/12/22 04:18:59;;;;;;;;;;;6.10;89.50;;;;;;5053249;28;20445;-89
2022/12/22 04:21:25;;;;;;;;;;;6.20;89.30;;;;;;5053578;28;19980;-89
2022/12/22 04:23:50;;;;;;;;;;;6.10;89.20;;;;;;5053492;28;19987;-89
2022/12/22 04:26:19;;;;;;;;;;;6.10;89.10;;;;;;5053312;28;19961;-89
2022/12/22 04:28:45;;;;;;;;;;;6.00;89.70;;;;;;5053144;28;19959;-90
2022/12/22 04:31:11;;;;;;;;;;;6.00;90.00;;;;;;5035528;28;20076;-89
2022/12/22 04:33:36;;;;;;;;;;;6.30;89.60;;;;;;5053329;28;19938;-89
2022/12/22 04:36:02;;;;;;;;;;;6.40;88.70;;;;;;5053277;28;19941;-89
2022/12/22 04:38:27;;;;;;;;;;;6.40;88.00;;;;;;5052827;28;19945;-89
2022/12/22 04:40:53;;;;;;;;;;;6.40;88.10;;;;;;5052944;28;19947;-89
2022/12/22 04:43:18;;;;;;;;;;;6.30;88.20;;;;;;5052405;28;20464;-89
2022/12/22 04:45:44;;;;;;;;;;;6.20;88.60;;;;;;5053064;28;20012;-89
2022/12/22 04:48:09;;;;;;;;;;;6.40;88.80;;;;;;5052933;28;19952;-89
2022/12/22 04:50:35;;;;;;;;;;;6.50;88.80;;;;;;5053086;28;19966;-89
2022/12/22 04:53:01;;;;;;;;;;;6.60;88.90;;;;;;5035145;28;19964;-90
2022/12/22 04:55:26;;;;;;;;;;;6.70;88.70;;;;;;5052926;28;19983;-89
2022/12/22 04:57:52;;;;;;;;;;;6.90;88.20;;;;;;5052726;28;19945;-89
2022/12/22 05:00:17;;;;;;;;;;;7.00;87.60;;;;;;5053003;28;19940;-89
2022/12/22 05:02:43;;;;;;;;;;;7.10;87.10;;;;;;5053240;28;20306;-89
2022/12/22 05:05:08;;;;;;;;;;;7.10;86.80;;;;;;5052848;28;20293;-89
2022/12/22 05:07:34;;;;;;;;;;;7.10;86.50;;;;;;5035148;28;20394;-89
2022/12/22 05:09:59;;;;;;;;;;;6.80;86.90;;;;;;5052934;28;19943;-90
2022/12/22 05:15:09;;;;;;;;;;;6.50;88.20;;;;;;5052844;28;19950;-90
2022/12/22 05:17:35;;;;;;;;;;;6.40;88.60;;;;;;5052557;28;20311;-89
2022/12/22 05:20:01;;;;;;;;;;;6.30;88.40;;;;;;5034892;28;20318;-88
2022/12/22 05:22:26;;;;;;;;;;;6.20;88.50;;;;;;5052631;28;19975;-89
2022/12/22 05:24:52;;;;;;;;;;;6.10;88.80;;;;;;5052739;28;20435;-89
2022/12/22 05:27:17;;;;;;;;;;;6.00;88.90;;;;;;5052510;28;19949;-89
2022/12/22 05:29:43;;;;;;;;;;;5.90;89.30;;;;;;5052513;28;19945;-89
2022/12/22 05:32:08;;;;;;;;;;;5.90;89.70;;;;;;5034814;28;19942;-89
2022/12/22 05:34:34;;;;;;;;;;;5.80;89.80;;;;;;5052663;28;20350;-89
2022/12/22 05:36:59;;;;;;;;;;;5.70;90.00;;;;;;5052620;28;19997;-89
2022/12/22 05:39:25;;;;;;;;;;;5.70;90.30;;;;;;5052409;28;19947;-89
2022/12/22 05:41:50;;;;;;;;;;;5.60;90.50;;;;;;5052614;28;19937;-89
2022/12/22 05:44:16;;;;;;;;;;;5.70;90.70;;;;;;5052577;28;19937;-89
2022/12/22 05:46:41;;;;;;;;;;;5.90;90.70;;;;;;5052486;28;19942;-89
2022/12/22 05:49:07;;;;;;;;;;;6.10;90.10;;;;;;5052239;28;20289;-89
2022/12/22 05:51:32;;;;;;;;;;;6.00;89.00;;;;;;5052486;28;19945;-88
2022/12/22 05:53:58;;;;;;;;;;;5.90;89.00;;;;;;5054491;28;19992;-89
2022/12/22 05:56:23;;;;;;;;;;;5.80;89.10;;;;;;5056192;28;20389;-89
2022/12/22 05:58:49;;;;;;;;;;;5.80;89.20;;;;;;5055825;28;19947;-89
2022/12/22 06:01:14;;;;;;;;;;;5.70;89.30;;;;;;5055904;28;20453;-89
2022/12/22 06:03:40;;;;;;;;;;;5.70;89.40;;;;;;5056127;28;20523;-90
2022/12/22 06:06:06;;;;;;;;;;;5.70;89.30;;;;;;5055959;28;20056;-89
2022/12/22 06:08:32;;;;;;;;;;;5.70;89.70;;;;;;5055768;28;19943;-90
2022/12/22 06:10:57;;;;;;;;;;;5.70;89.80;;;;;;5055918;28;20038;-89
2022/12/22 06:13:24;;;;;;;;;;;5.50;89.90;;;;;;5055851;28;19940;-89
2022/12/22 06:15:49;;;;;;;;;;;5.60;90.20;;;;;;5056126;28;20034;-89
2022/12/22 06:18:15;;;;;;;;;;;5.50;90.30;;;;;;5055306;28;20451;-89
2022/12/22 06:20:40;;;;;;;;;;;5.60;90.30;;;;;;5055311;28;20361;-90
2022/12/22 06:23:07;;;;;;;;;;;5.60;90.30;;;;;;5055503;28;19978;-89
2022/12/22 06:25:32;;;;;;;;;;;5.70;90.30;;;;;;5055659;28;19959;-89
2022/12/22 06:27:58;;;;;;;;;;;5.60;90.30;;;;;;5055167;28;20454;-89
2022/12/22 06:30:23;;;;;;;;;;;5.60;90.50;;;;;;5054126;28;19947;-89
2022/12/22 06:32:49;;;;;;;;;;;5.60;90.50;;;;;;5053239;28;20430;-89
2022/12/22 06:35:15;;;;;;;;;;;5.60;90.70;;;;;;5050775;28;19947;-89
2022/12/22 06:37:40;;;;;;;;;;;5.50;90.60;;;;;;5052739;28;19951;-89
2022/12/22 06:40:07;;;;;;;;;;;5.50;90.70;;;;;;5056128;28;19940;-89
2022/12/22 06:45:16;;;;;;;;;;;5.40;90.70;;;;;;5059572;28;19972;-89
2022/12/22 06:47:42;;;;;;;;;;;5.40;91.00;;;;;;5048972;28;19951;-89
2022/12/22 06:50:07;;;;;;;;;;;5.40;91.20;;;;;;5054272;28;20393;-89
2022/12/22 06:52:33;;;;;;;;;;;5.40;91.30;;;;;;5053716;28;19967;-89
2022/12/22 06:55:01;;;;;;;;;;;5.20;91.70;;;;;;5055792;28;20470;-89
2022/12/22 06:57:26;;;;;;;;;;;5.30;91.80;;;;;;5053456;28;19950;-89
2022/12/22 06:59:52;;;;;;;;;;;5.50;91.80;;;;;;5060846;28;19952;-89
2022/12/22 07:02:18;;;;;;;;;;;5.50;91.30;;;;;;5050591;28;20043;-89
2022/12/22 07:04:44;;;;;;;;;;;5.50;91.30;;;;;;5050902;28;19949;-89
2022/12/22 07:07:09;;;;;;;;;;;5.50;91.30;;;;;;5058840;28;20446;-89
2022/12/22 07:09:35;;;;;;;;;;;5.50;91.20;;;;;;5059872;28;19953;-88
2022/12/22 07:12:01;;;;;;;;;;;5.50;91.10;;;;;;5051714;28;20024;-87
2022/12/22 07:14:26;;;;;;;;;;;5.40;91.20;;;;;;5051791;28;20427;-87
2022/12/22 07:16:52;;;;;;;;;;;5.30;91.90;;;;;;5047772;28;19950;-88
2022/12/22 07:19:17;;;;;;;;;;;5.40;91.90;;;;;;5034997;28;19958;-88
2022/12/22 07:21:43;;;;;;;;;;;5.40;92.00;;;;;;5033361;28;20461;-88
2022/12/22 07:24:08;;;;;;;;;;;5.40;91.70;;;;;;5050996;28;19976;-88
2022/12/22 07:26:34;;;;;;;;;;;5.40;91.80;;;;;;5052258;28;19942;-88
2022/12/22 07:29:00;;;;;;;;;;;5.40;91.80;;;;;;5050921;28;19996;-88
2022/12/22 07:31:25;;;;;;;;;;;5.40;91.90;;;;;;5030932;28;19952;-89
2022/12/22 07:33:51;;;;;;;;;;;5.50;92.00;;;;;;5052851;28;20306;-88
2022/12/22 07:36:17;;;;;;;;;;;5.60;91.70;;;;;;5047940;28;20421;-89
2022/12/22 07:38:44;;;;;;;;;;;5.50;91.60;;;;;;5053787;28;20419;-89
2022/12/22 07:43:56;;;;;;;;;;;5.90;91.00;;;;;;5052338;28;19948;-87
2022/12/22 07:46:22;;;;;;;;;;;5.80;90.60;;;;;;5051764;28;19970;-88
2022/12/22 07:51:32;;;;;;;;;;;5.70;91.30;;;;;;5052221;28;19948;-88
2022/12/22 07:53:58;;;;;;;;;;;5.70;91.50;;;;;;5053165;28;19963;-88
2022/12/22 07:56:23;;;;;;;;;;;5.60;91.60;;;;;;5052186;28;20359;-88
2022/12/22 07:58:49;;;;;;;;;;;5.60;91.60;;;;;;5052982;28;19980;-87
2022/12/22 08:01:15;;;;;;;;;;;5.60;91.70;;;;;;5050912;28;20029;-87
2022/12/22 08:03:40;;;;;;;;;;;5.60;91.90;;;;;;5053588;28;20042;-87
2022/12/22 08:06:06;;;;;;;;;;;5.60;91.90;;;;;;5049822;28;19958;-88
2022/12/22 08:08:32;;;;;;;;;;;5.70;92.10;;;;;;5051929;28;19952;-88
2022/12/22 08:11:00;;;;;;;;;;;5.80;92.10;;;;;;5048513;28;19945;-88
2022/12/22 08:13:25;;;;;;;;;;;6.00;92.10;;;;;;5049870;28;20323;-88
2022/12/22 08:15:51;;;;;;;;;;;6.20;91.20;;;;;;5044730;28;19947;-87
2022/12/22 08:18:16;;;;;;;;;;;6.00;90.70;;;;;;5047554;28;19985;-88
2022/12/22 08:20:47;;;;;;;;;;;6.00;91.10;;;;;;5049375;28;19952;-88
2022/12/22 08:23:12;;;;;;;;;;;6.00;90.80;;;;;;5046897;28;19977;-88
2022/12/22 08:25:38;;;;;;;;;;;6.00;91.00;;;;;;5049842;28;20035;-88
2022/12/22 08:28:04;;;;;;;;;;;6.00;91.00;;;;;;5046438;28;19950;-88
2022/12/22 08:30:30;;;;;;;;;;;5.90;90.40;;;;;;5044689;28;20478;-88
2022/12/22 08:32:55;;;;;;;;;;;6.10;90.60;;;;;;5051465;28;20000;-89
2022/12/22 08:35:21;;;;;;;;;;;6.30;90.60;;;;;;5050371;28;20037;-88
2022/12/22 08:37:47;;;;;;;;;;;6.60;90.30;;;;;;5050339;28;20451;-88
2022/12/22 08:40:18;;;;;;;;;;;6.80;90.00;;;;;;5046957;28;19949;-88
2022/12/22 08:42:44;;;;;;;;;;;6.90;89.60;;;;;;5047575;28;19996;-89
2022/12/22 08:45:10;;;;;;;;;;;7.00;89.30;;;;;;5050366;28;20612;-89
2022/12/22 08:47:35;;;;;;;;;;;7.00;89.20;;;;;;5044834;28;19951;-88
2022/12/22 08:50:01;;;;;;;;;;;7.20;87.70;;;;;;5049748;28;19950;-88
2022/12/22 08:52:27;;;;;;;;;;;7.40;86.70;;;;;;5048700;28;20098;-88
2022/12/22 08:54:52;;;;;;;;;;;7.20;86.40;;;;;;5049227;28;20304;-88
2022/12/22 08:57:18;;;;;;;;;;;7.10;86.90;;;;;;5049899;28;19946;-87
2022/12/22 08:59:43;;;;;;;;;;;7.00;87.30;;;;;;5047683;28;19949;-88
2022/12/22 09:02:09;;;;;;;;;;;6.90;88.20;;;;;;5047565;28;19987;-88
2022/12/22 09:04:35;;;;;;;;;;;7.00;88.30;;;;;;5047029;28;19946;-88
2022/12/22 09:07:03;;;;;;;;;;;7.10;88.40;;;;;;5047598;28;19963;-88
2022/12/22 09:09:33;;;;;;;;;;;7.20;88.20;;;;;;5048364;28;19944;-89
2022/12/22 09:11:58;;;;;;;;;;;7.30;87.80;;;;;;5046658;28;19942;-88
2022/12/22 09:14:24;;;;;;;;;;;7.50;87.70;;;;;;5046990;28;19950;-88
2022/12/22 09:16:50;;;;;;;;;;;7.70;87.00;;;;;;5046128;28;19969;-88
2022/12/22 09:19:15;;;;;;;;;;;7.80;86.70;;;;;;5049043;28;19951;-89
2022/12/22 09:21:41;;;;;;;;;;;8.00;86.10;;;;;;5049281;28;19975;-89
2022/12/22 09:24:06;;;;;;;;;;;8.00;85.50;;;;;;5050202;28;19942;-89
2022/12/22 09:26:32;;;;;;;;;;;7.90;85.60;;;;;;5051487;28;20454;-89
2022/12/22 09:28:58;;;;;;;;;;;7.90;85.90;;;;;;5052027;28;20551;-88
2022/12/22 09:31:24;;;;;;;;;;;7.90;86.00;;;;;;5054711;28;20399;-88
2022/12/22 09:33:50;;;;;;;;;;;7.90;86.30;;;;;;5056287;28;19949;-88
2022/12/22 09:36:17;;;;;;;;;;;7.90;86.00;;;;;;5050918;28;19957;-88
2022/12/22 09:38:43;;;;;;;;;;;7.90;86.30;;;;;;5053309;28;19956;-88
2022/12/22 09:41:14;;;;;;;;;;;8.00;86.50;;;;;;5053285;28;20036;-88
2022/12/22 09:43:39;;;;;;;;;;;8.20;86.00;;;;;;5052439;28;19946;-89
2022/12/22 09:46:10;;;;;;;;;;;8.20;85.80;;;;;;5052547;28;20030;-89
2022/12/22 09:48:36;;;;;;;;;;;8.20;85.80;;;;;;5056045;28;20006;-89
2022/12/22 09:51:03;;;;;;;;;;;8.60;85.00;;;;;;5053897;28;20396;-89
2022/12/22 09:53:29;;;;;;;;;;;8.80;84.10;;;;;;5052935;28;20015;-89
2022/12/22 09:55:55;;;;;;;;;;;8.90;83.60;;;;;;5052897;28;19948;-89
2022/12/22 09:58:28;;;;;;;;;;;8.60;83.90;;;;;;5053995;28;20032;-89
2022/12/22 10:00:59;;;;;;;;;;;8.50;84.60;;;;;;5052028;28;19939;-89
2022/12/22 10:03:24;;;;;;;;;;;8.90;84.00;;;;;;5052939;28;19948;-89
2022/12/22 10:06:00;;;;;;;;;;;8.90;82.90;;;;;;5052209;28;20416;-89
2022/12/22 10:08:27;;;;;;;;;;;9.00;82.60;;;;;;5051986;28;19948;-88
2022/12/22 10:10:54;;;;;;;;;;;8.80;82.40;;;;;;5054034;28;20287;-88
2022/12/22 10:13:19;;;;;;;;;;;8.70;82.90;;;;;;5052255;28;19988;-88
2022/12/22 10:15:45;;;;;;;;;;;8.70;83.30;;;;;;5050520;28;20368;-88
2022/12/22 10:18:34;;;;;;;;;;;8.60;83.70;;;;;;5052804;28;19954;-88
2022/12/22 10:23:28;;;;;;;;;;;8.50;84.00;;;;;;5078681;22;19978;-89
2022/12/22 10:25:53;;;;;;;;;;;8.40;84.50;;;;;;5069057;28;20049;-89
2022/12/22 10:28:48;;;;;;;;;;;8.40;84.90;;;;;;5072204;28;20048;-89
2022/12/22 10:31:34;;;;;;;;;;;8.50;84.90;;;;;;5055704;28;20318;-89
2022/12/22 10:34:10;;;;;;;;;;;8.60;84.50;;;;;;5071577;28;19944;-89
2022/12/22 10:36:36;;;;;;;;;;;8.60;84.30;;;;;;5070878;28;19950;-89
2022/12/22 10:39:07;;;;;;;;;;;8.60;84.00;;;;;;5072107;28;20003;-90
2022/12/22 10:41:41;;;;;;;;;;;8.60;83.70;;;;;;5052381;28;21425;-88
2022/12/22 10:44:08;;;;;;;;;;;8.70;83.90;;;;;;5071197;28;19942;-88
2022/12/22 10:46:37;;;;;;;;;;;8.70;83.80;;;;;;5046421;28;19983;-89
2022/12/22 10:49:09;;;;;;;;;;;8.70;83.70;;;;;;5065877;28;19950;-88
2022/12/22 10:51:34;;;;;;;;;;;8.50;83.70;;;;;;5071138;28;20001;-88
2022/12/22 10:54:00;;;;;;;;;;;8.60;84.30;;;;;;5068789;28;19958;-88
2022/12/22 10:56:26;;;;;;;;;;;8.90;83.80;;;;;;5073034;28;20320;-89
2022/12/22 10:58:53;;;;;;;;;;;9.10;83.00;;;;;;5071563;28;20300;-89
2022/12/22 11:01:24;;;;;;;;;;;9.10;83.20;;;;;;5069692;28;19954;-89
2022/12/22 11:03:49;;;;;;;;;;;9.30;83.30;;;;;;5072375;28;19943;-89
2022/12/22 11:06:15;;;;;;;;;;;9.40;82.20;;;;;;5067498;28;19957;-89
2022/12/22 11:08:41;;;;;;;;;;;9.40;82.10;;;;;;5072240;28;20043;-89
2022/12/22 11:11:12;;;;;;;;;;;9.70;81.40;;;;;;5070860;28;19989;-89
2022/12/22 11:13:46;;;;;;;;;;;9.90;80.00;;;;;;5073359;28;19952;-89
2022/12/22 11:16:26;;;;;;;;;;;10.10;79.70;;;;;;5073784;28;19962;-89
2022/12/22 11:18:58;;;;;;;;;;;10.00;78.80;;;;;;5073916;28;19945;-88
2022/12/22 11:21:29;;;;;;;;;;;9.70;80.30;;;;;;5071948;28;20040;-88
2022/12/22 11:24:10;;;;;;;;;;;9.50;81.00;;;;;;5074556;28;19943;-86
2022/12/22 11:26:53;;;;;;;;;;;9.50;80.60;;;;;;5073588;28;19966;-88
2022/12/22 11:29:31;;;;;;;;;;;9.40;81.30;;;;;;5074439;28;20459;-89
2022/12/22 11:32:05;;;;;;;;;;;9.40;81.20;;;;;;5073311;28;19941;-88
2022/12/22 11:34:34;;;;;;;;;;;9.60;81.20;;;;;;5074435;28;19934;-89
2022/12/22 11:37:18;;;;;;;;;;;9.80;80.50;;;;;;5073390;28;19945;-89
2022/12/22 11:39:47;;;;;;;;;;;9.90;80.00;;;;;;5074280;28;19945;-89
2022/12/22 11:42:25;;;;;;;;;;;10.00;79.50;;;;;;5072856;28;19950;-89
2022/12/22 11:45:29;;;;;;;;;;;10.30;79.10;;;;;;5073708;28;19937;-89
2022/12/22 11:48:00;;;;;;;;;;;10.30;78.10;;;;;;4992519;28;20069;-89
2022/12/22 11:50:41;;;;;;;;;;;10.60;78.10;;;;;;4995661;28;19954;-90
2022/12/22 11:53:33;;;;;;;;;;;11.20;75.80;;;;;;5049752;28;19963;-89
2022/12/22 11:56:10;;;;;;;;;;;11.80;72.40;;;;;;5048736;28;19987;-89
2022/12/22 11:58:42;;;;;;;;;;;11.70;72.10;;;;;;5073902;28;19976;-88
2022/12/22 12:01:13;;;;;;;;;;;11.40;72.90;;;;;;5053869;28;19969;-88
2022/12/22 12:03:45;;;;;;;;;;;11.50;73.30;;;;;;5053860;28;19983;-88
2022/12/22 12:06:29;;;;;;;;;;;11.70;73.30;;;;;;5065571;28;19972;-88
2022/12/22 12:08:57;;;;;;;;;;;11.80;71.90;;;;;;5072275;28;19945;-89
2022/12/22 12:11:25;;;;;;;;;;;12.20;71.10;;;;;;5073415;28;19995;-88
2022/12/22 12:14:09;;;;;;;;;;;12.70;69.90;;;;;;5073600;28;19988;-89
2022/12/22 12:16:40;;;;;;;;;;;13.30;68.50;;;;;;5072725;28;19948;-89
2022/12/22 12:19:26;;;;;;;;;;;13.60;67.50;;;;;;5070883;28;19950;-89
2022/12/22 12:21:54;;;;;;;;;;;13.50;67.90;;;;;;5071765;28;20018;-89
2022/12/22 12:24:39;;;;;;;;;;;13.50;67.20;;;;;;5071519;28;19946;-89
2022/12/22 12:27:23;;;;;;;;;;;13.40;68.60;;;;;;5071883;28;19969;-89
2022/12/22 12:29:58;;;;;;;;;;;13.20;68.80;;;;;;5069330;28;19950;-88
2022/12/22 12:32:32;;;;;;;;;;;12.90;69.20;;;;;;5059975;28;20420;-88
2022/12/22 12:35:03;;;;;;;;;;;12.50;70.70;;;;;;5069667;28;19946;-89
2022/12/22 12:37:32;;;;;;;;;;;12.50;70.60;;;;;;5069381;28;19948;-89
2022/12/22 12:40:00;;;;;;;;;;;12.70;70.30;;;;;;5068351;28;19946;-89
2022/12/22 12:42:31;;;;;;;;;;;13.10;69.70;;;;;;5066788;28;19991;-89
2022/12/22 12:44:58;;;;;;;;;;;13.40;67.70;;;;;;5070364;28;20491;-88
2022/12/22 12:47:23;;;;;;;;;;;13.30;68.10;;;;;;5067440;28;20066;-89
2022/12/22 12:49:58;;;;;;;;;;;13.20;68.10;;;;;;5069510;28;20035;-88
2022/12/22 12:52:39;;;;;;;;;;;12.90;68.60;;;;;;5071852;28;20474;-88
2022/12/22 12:55:19;;;;;;;;;;;12.60;69.80;;;;;;5066962;28;20461;-88
2022/12/22 12:57:47;;;;;;;;;;;12.00;71.80;;;;;;5068831;28;19945;-88
2022/12/22 13:00:30;;;;;;;;;;;11.50;72.90;;;;;;5063364;28;19982;-88
2022/12/22 13:02:57;;;;;;;;;;;11.10;74.40;;;;;;5062213;28;19950;-88
2022/12/22 13:05:28;;;;;;;;;;;11.10;75.60;;;;;;5068317;28;20309;-88
2022/12/22 13:08:06;;;;;;;;;;;11.50;76.10;;;;;;5068230;28;19948;-88
2022/12/22 13:10:33;;;;;;;;;;;11.90;74.40;;;;;;5069093;28;19961;-88
2022/12/22 13:12:58;;;;;;;;;;;12.20;73.40;;;;;;5072030;28;19946;-89
2022/12/22 13:15:34;;;;;;;;;;;12.10;73.90;;;;;;5068338;28;20405;-88
2022/12/22 13:18:01;;;;;;;;;;;11.80;74.60;;;;;;5069670;28;19953;-88
2022/12/22 13:20:34;;;;;;;;;;;11.30;75.70;;;;;;5066310;28;19948;-88
2022/12/22 13:23:01;;;;;;;;;;;11.10;76.70;;;;;;5049196;28;19970;-88
2022/12/22 13:25:53;;;;;;;;;;;10.80;77.40;;;;;;5048267;28;19945;-88
2022/12/22 13:28:20;;;;;;;;;;;10.30;79.30;;;;;;5045721;28;19949;-88
2022/12/22 13:31:04;;;;;;;;;;;9.90;81.20;;;;;;5048723;28;20038;-88
2022/12/22 13:33:31;;;;;;;;;;;9.90;82.00;;;;;;5044878;28;20391;-88
2022/12/22 13:35:57;;;;;;;;;;;10.10;81.60;;;;;;5048957;28;19950;-88
2022/12/22 13:38:29;;;;;;;;;;;10.40;81.10;;;;;;5047516;28;19949;-88
2022/12/22 13:40:55;;;;;;;;;;;10.60;79.90;;;;;;5048904;28;20009;-88
2022/12/22 13:43:21;;;;;;;;;;;10.80;79.50;;;;;;5047069;28;19945;-88
2022/12/22 13:45:47;;;;;;;;;;;11.10;77.80;;;;;;5047457;28;20304;-89
2022/12/22 13:48:18;;;;;;;;;;;11.30;76.80;;;;;;5040217;28;19959;-88
2022/12/22 13:50:47;;;;;;;;;;;11.20;77.10;;;;;;5047433;28;20406;-88
2022/12/22 13:53:16;;;;;;;;;;;10.90;77.50;;;;;;5040270;28;19987;-87
2022/12/22 13:55:45;;;;;;;;;;;10.80;77.80;;;;;;5048715;28;19942;-88
2022/12/22 13:58:30;;;;;;;;;;;10.60;78.40;;;;;;5047508;28;19940;-89
2022/12/22 14:01:10;;;;;;;;;;;10.40;78.90;;;;;;5044400;28;19950;-88
2022/12/22 14:03:36;;;;;;;;;;;10.20;79.70;;;;;;5044453;28;20406;-88
2022/12/22 14:06:02;;;;;;;;;;;10.10;79.80;;;;;;5048112;28;20012;-88
2022/12/22 14:08:27;;;;;;;;;;;9.90;80.20;;;;;;5046729;28;19942;-89
2022/12/22 14:10:54;;;;;;;;;;;9.70;81.00;;;;;;5048214;28;19951;-88
2022/12/22 14:13:24;;;;;;;;;;;9.60;81.60;;;;;;5049875;28;19947;-89
2022/12/22 14:16:04;;;;;;;;;;;9.50;82.00;;;;;;5047110;28;19941;-88
2022/12/22 14:18:30;;;;;;;;;;;9.40;82.60;;;;;;5049735;28;19980;-88
2022/12/22 14:20:57;;;;;;;;;;;9.30;83.20;;;;;;5052313;28;20006;-88
2022/12/22 14:23:30;;;;;;;;;;;9.20;83.60;;;;;;5070370;28;19978;-89
2022/12/22 14:25:57;;;;;;;;;;;9.20;83.80;;;;;;5061360;28;19966;-88
2022/12/22 14:28:25;;;;;;;;;;;9.20;83.90;;;;;;5070391;28;19960;-88
2022/12/22 14:31:01;;;;;;;;;;;9.10;84.20;;;;;;5072066;28;19942;-89
2022/12/22 14:33:29;;;;;;;;;;;9.10;84.20;;;;;;5069678;28;19950;-88
2022/12/22 14:36:14;;;;;;;;;;;9.20;83.90;;;;;;5071722;28;20426;-88
2022/12/22 14:38:46;;;;;;;;;;;9.20;83.70;;;;;;5062569;28;20038;-88
2022/12/22 14:41:40;;;;;;;;;;;9.20;83.80;;;;;;5071665;28;19965;-89
2022/12/22 14:44:03;;;;;;;;;;;9.10;84.20;;;;;;5071384;28;20436;-89
2022/12/22 14:46:29;;;;;;;;;;;9.00;84.20;;;;;;5067483;28;19958;-88
2022/12/22 14:48:56;;;;;;;;;;;8.90;84.40;;;;;;5073240;28;20003;-89
2022/12/22 14:51:22;;;;;;;;;;;8.80;84.80;;;;;;5072716;28;19949;-89
2022/12/22 14:53:52;;;;;;;;;;;8.80;85.00;;;;;;5070319;28;20063;-89
2022/12/22 14:56:18;;;;;;;;;;;8.80;85.00;;;;;;5073380;28;20087;-88
2022/12/22 14:58:45;;;;;;;;;;;8.80;85.10;;;;;;5072692;28;20391;-89
2022/12/22 15:01:11;;;;;;;;;;;8.70;85.30;;;;;;5069837;28;19967;-89
2022/12/22 15:03:37;;;;;;;;;;;8.70;85.30;;;;;;5069062;28;20405;-89
2022/12/22 15:06:21;;;;;;;;;;;8.70;85.40;;;;;;5071855;28;20321;-89
2022/12/22 15:08:46;;;;;;;;;;;8.80;85.30;;;;;;5072621;28;19996;-89
2022/12/22 15:11:17;;;;;;;;;;;8.90;85.10;;;;;;5072829;28;20368;-88
2022/12/22 15:13:43;;;;;;;;;;;8.90;84.20;;;;;;5068110;28;19954;-88
2022/12/22 15:16:16;;;;;;;;;;;8.70;84.50;;;;;;5069693;28;20044;-88
2022/12/22 15:18:42;;;;;;;;;;;8.50;85.00;;;;;;5070916;28;19942;-88
2022/12/22 15:21:10;;;;;;;;;;;8.30;85.20;;;;;;5069470;28;19945;-88
2022/12/22 15:23:36;;;;;;;;;;;8.10;86.20;;;;;;5072068;28;19973;-89
2022/12/22 15:26:01;;;;;;;;;;;7.80;86.80;;;;;;5071070;28;19956;-89
2022/12/22 15:28:27;;;;;;;;;;;7.70;87.30;;;;;;5071885;28;20040;-89
2022/12/22 15:30:52;;;;;;;;;;;7.50;87.60;;;;;;5071330;28;19940;-89
2022/12/22 15:33:18;;;;;;;;;;;7.50;87.80;;;;;;5072547;28;19952;-89
2022/12/22 15:35:44;;;;;;;;;;;7.40;88.40;;;;;;5071114;28;19945;-89
2022/12/22 15:38:14;;;;;;;;;;;7.40;88.70;;;;;;5070423;28;19944;-89
2022/12/22 15:40:39;;;;;;;;;;;7.30;89.00;;;;;;5068780;28;19950;-88
2022/12/22 15:43:05;;;;;;;;;;;7.40;89.60;;;;;;5070471;28;20029;-89
2022/12/22 15:45:31;;;;;;;;;;;7.30;89.70;;;;;;5068161;28;20452;-88
2022/12/22 15:47:57;;;;;;;;;;;7.20;90.30;;;;;;5072058;28;19950;-88
2022/12/22 15:50:26;;;;;;;;;;;7.10;90.50;;;;;;5071049;28;20326;-85
2022/12/22 15:52:53;;;;;;;;;;;7.00;90.80;;;;;;5069539;28;20025;-86
2022/12/22 15:55:19;;;;;;;;;;;7.00;90.70;;;;;;5066655;28;19951;-86
2022/12/22 15:57:45;;;;;;;;;;;7.20;90.60;;;;;;5059881;28;20426;-87
2022/12/22 16:00:12;;;;;;;;;;;7.50;90.20;;;;;;5069235;28;20039;-85
2022/12/22 16:02:37;;;;;;;;;;;7.40;90.00;;;;;;5071862;28;19978;-85
2022/12/22 16:05:03;;;;;;;;;;;7.50;90.20;;;;;;5070995;28;20498;-85
2022/12/22 16:07:29;;;;;;;;;;;7.70;90.00;;;;;;5072270;28;20066;-85
2022/12/22 16:09:55;;;;;;;;;;;7.90;89.50;;;;;;5069094;28;20319;-85
2022/12/22 16:12:20;;;;;;;;;;;8.10;88.50;;;;;;5071344;28;19955;-85
2022/12/22 16:14:50;;;;;;;;;;;7.80;88.20;;;;;;5067815;28;19946;-85
2022/12/22 16:17:17;;;;;;;;;;;7.60;88.40;;;;;;5068376;28;20157;-85
2022/12/22 16:19:44;;;;;;;;;;;7.40;88.80;;;;;;5067919;28;20418;-86
2022/12/22 16:22:10;;;;;;;;;;;7.50;88.90;;;;;;5066475;28;20084;-86
2022/12/22 16:24:37;;;;;;;;;;;7.60;88.50;;;;;;5069176;28;19949;-87
2022/12/22 16:27:03;;;;;;;;;;;7.70;87.70;;;;;;5072623;28;20107;-86
2022/12/22 16:29:28;;;;;;;;;;;7.60;87.60;;;;;;5071229;28;19973;-84
2022/12/22 16:31:55;;;;;;;;;;;7.40;87.20;;;;;;5071606;28;19953;-88
2022/12/22 16:34:21;;;;;;;;;;;7.20;87.50;;;;;;5070021;28;19941;-88
2022/12/22 16:36:46;;;;;;;;;;;7.10;87.70;;;;;;5070319;28;19950;-88
2022/12/22 16:39:12;;;;;;;;;;;7.30;88.10;;;;;;5071828;28;19952;-88
2022/12/22 16:41:38;;;;;;;;;;;7.40;88.10;;;;;;5071852;28;19948;-88
2022/12/22 16:44:06;;;;;;;;;;;7.50;88.40;;;;;;5070712;28;19945;-88
2022/12/22 16:46:33;;;;;;;;;;;7.50;88.60;;;;;;5071316;28;19960;-88
2022/12/22 16:49:00;;;;;;;;;;;7.50;88.60;;;;;;5070218;28;19953;-88
2022/12/22 16:51:27;;;;;;;;;;;7.40;89.00;;;;;;5053277;28;19954;-88
2022/12/22 16:53:53;;;;;;;;;;;7.40;89.20;;;;;;5071002;28;20058;-88
2022/12/22 16:56:23;;;;;;;;;;;7.40;89.20;;;;;;5071872;28;20384;-88
2022/12/22 16:58:49;;;;;;;;;;;7.30;89.50;;;;;;5053647;28;19949;-88
2022/12/22 17:01:19;;;;;;;;;;;7.30;89.60;;;;;;5067912;28;20036;-88
2022/12/22 17:03:44;;;;;;;;;;;7.30;89.30;;;;;;5071477;28;19943;-88
2022/12/22 17:06:10;;;;;;;;;;;7.30;89.70;;;;;;5066844;28;19966;-88
2022/12/22 17:08:38;;;;;;;;;;;7.20;89.70;;;;;;5067050;28;20364;-88
2022/12/22 17:11:05;;;;;;;;;;;7.20;89.80;;;;;;5070167;28;19956;-88
2022/12/22 17:13:31;;;;;;;;;;;7.20;89.90;;;;;;5067917;28;19944;-88
2022/12/22 17:15:56;;;;;;;;;;;7.10;89.70;;;;;;5071530;28;19954;-88
2022/12/22 17:18:23;;;;;;;;;;;7.00;89.80;;;;;;5072218;28;20396;-88
2022/12/22 17:20:51;;;;;;;;;;;6.90;89.90;;;;;;5049306;28;19968;-88
2022/12/22 17:23:42;;;;;;;;;;;6.80;90.20;;;;;;5061267;28;20361;-88
2022/12/22 17:26:10;;;;;;;;;;;7.00;90.20;;;;;;5068402;28;20480;-88
2022/12/22 17:28:36;;;;;;;;;;;7.10;90.00;;;;;;5069238;28;20312;-88
2022/12/22 17:31:01;;;;;;;;;;;7.20;89.80;;;;;;5067378;28;19945;-88
2022/12/22 17:33:27;;;;;;;;;;;7.20;89.50;;;;;;5070121;28;19993;-88
2022/12/22 17:35:52;;;;;;;;;;;7.20;89.00;;;;;;5070331;28;19944;-88
2022/12/22 17:38:19;;;;;;;;;;;7.10;89.30;;;;;;5072422;28;20039;-88
2022/12/22 17:40:45;;;;;;;;;;;7.10;89.50;;;;;;5070980;28;19948;-88
2022/12/22 17:43:15;;;;;;;;;;;7.10;89.50;;;;;;5070402;28;20327;-88
2022/12/22 17:45:41;;;;;;;;;;;7.00;89.70;;;;;;5057629;28;19985;-88
2022/12/22 17:48:07;;;;;;;;;;;6.90;89.80;;;;;;5072543;28;19951;-88
2022/12/22 17:50:33;;;;;;;;;;;6.80;90.00;;;;;;5074510;28;19965;-88
2022/12/22 17:52:59;;;;;;;;;;;6.70;90.20;;;;;;5075691;28;20013;-88
2022/12/22 17:55:26;;;;;;;;;;;6.70;89.90;;;;;;5075575;28;20403;-88
2022/12/22 17:57:52;;;;;;;;;;;6.50;89.80;;;;;;5073563;28;19954;-88
2022/12/22 18:00:19;;;;;;;;;;;6.50;89.50;;;;;;5074444;28;20042;-88
2022/12/22 18:02:45;;;;;;;;;;;6.50;89.60;;;;;;5072897;28;19946;-88
2022/12/22 18:05:11;;;;;;;;;;;6.50;89.70;;;;;;5073749;28;19960;-88
2022/12/22 18:07:37;;;;;;;;;;;6.40;89.60;;;;;;5074453;28;20040;-88
2022/12/22 18:10:02;;;;;;;;;;;6.40;90.20;;;;;;5075243;28;20046;-88
2022/12/22 18:12:28;;;;;;;;;;;6.40;89.90;;;;;;5074984;28;19956;-88
2022/12/22 18:14:54;;;;;;;;;;;6.20;90.10;;;;;;5075522;28;19950;-88
2022/12/22 18:17:20;;;;;;;;;;;6.10;91.70;;;;;;5061283;28;19950;-88
2022/12/22 18:19:46;;;;;;;;;;;6.10;91.70;;;;;;5074858;28;19952;-88
2022/12/22 18:22:19;;;;;;;;;;;6.20;91.60;;;;;;5082298;22;20369;-88